Array ( [0] => 2015/04/27 01:30 [1] => LEIB 270130Z 25011KT 9999 FEW015 17/11 Q1006 NOSIG ) Sa Trinxa - Ibiza
picture

Partner

adSpot
Chicaria Records
Ibiza global radio
Ibiza Sonica
Partysan
Pioneer Pro DJ